createdAt,value
2022-09-28T00:00:19.114Z,11.10
2022-09-28T00:02:48.609Z,11.93
2022-09-28T00:05:18.274Z,14.20
2022-09-28T00:07:47.666Z,11.07
2022-09-28T00:10:17.194Z,11.37
2022-09-28T00:12:49.153Z,11.10
2022-09-28T00:15:18.954Z,11.07
2022-09-28T00:17:48.325Z,10.23
2022-09-28T00:20:18.158Z,10.87
2022-09-28T00:22:47.570Z,10.73
2022-09-28T00:25:17.391Z,11.03
2022-09-28T00:27:52.575Z,11.40
2022-09-28T00:30:21.959Z,10.50
2022-09-28T00:32:51.327Z,11.00
2022-09-28T00:35:20.730Z,10.13
2022-09-28T00:37:52.196Z,10.47
2022-09-28T00:40:21.679Z,11.90
2022-09-28T00:42:53.686Z,11.00
2022-09-28T00:45:24.470Z,11.07
2022-09-28T00:47:57.765Z,11.80
2022-09-28T00:50:30.211Z,11.93
2022-09-28T00:53:03.601Z,12.87
2022-09-28T00:55:37.678Z,12.43
2022-09-28T00:58:11.935Z,13.17
2022-09-28T01:00:42.744Z,12.57
2022-09-28T01:03:14.270Z,13.30
2022-09-28T01:05:43.732Z,12.87
2022-09-28T01:08:14.257Z,13.80
2022-09-28T01:10:43.834Z,14.20
2022-09-28T01:13:16.305Z,13.43
2022-09-28T01:15:52.307Z,13.60
2022-09-28T01:18:25.307Z,12.70
2022-09-28T01:20:59.261Z,14.40
2022-09-28T01:23:51.589Z,14.10
2022-09-28T01:27:08.385Z,14.00
2022-09-28T01:29:50.185Z,14.10
2022-09-28T01:32:33.752Z,13.73
2022-09-28T01:35:06.646Z,13.90
2022-09-28T01:37:39.942Z,14.53
2022-09-28T01:40:10.546Z,13.23
2022-09-28T01:42:42.052Z,14.47
2022-09-28T01:45:19.191Z,13.60
2022-09-28T01:47:49.694Z,14.70
2022-09-28T01:50:22.377Z,13.60
2022-09-28T01:52:55.734Z,13.90
2022-09-28T01:55:31.485Z,14.17
2022-09-28T01:58:04.617Z,13.50
2022-09-28T02:00:37.764Z,12.93
2022-09-28T02:03:10.951Z,13.53
2022-09-28T02:05:42.218Z,14.33
2022-09-28T02:08:13.829Z,13.20
2022-09-28T02:10:45.494Z,13.20
2022-09-28T02:13:18.044Z,13.80
2022-09-28T02:15:54.525Z,13.57
2022-09-28T02:18:24.041Z,13.70
2022-09-28T02:20:58.560Z,13.70
2022-09-28T02:23:29.763Z,15.33
2022-09-28T02:26:03.997Z,13.97
2022-09-28T02:28:33.435Z,15.83
2022-09-28T02:31:05.533Z,14.20
2022-09-28T02:33:39.142Z,14.20
2022-09-28T02:36:09.548Z,13.57
2022-09-28T02:38:39.461Z,12.50
2022-09-28T02:41:14.115Z,12.50
2022-09-28T02:43:52.980Z,11.60
2022-09-28T02:46:31.064Z,12.83
2022-09-28T02:49:30.443Z,13.17
2022-09-28T02:52:18.180Z,12.27
2022-09-28T02:55:15.665Z,12.67
2022-09-28T02:57:55.409Z,12.67
2022-09-28T03:00:26.038Z,13.20
2022-09-28T03:03:04.341Z,14.77
2022-09-28T03:05:39.029Z,14.40
2022-09-28T03:08:13.225Z,15.00
2022-09-28T03:10:46.156Z,13.93
2022-09-28T03:13:16.679Z,13.67
2022-09-28T03:15:49.000Z,13.87
2022-09-28T03:18:21.233Z,11.70
2022-09-28T03:20:50.662Z,12.63
2022-09-28T03:23:24.723Z,13.30
2022-09-28T03:25:54.925Z,12.80
2022-09-28T03:28:24.505Z,12.77
2022-09-28T03:30:54.010Z,12.80
2022-09-28T03:33:26.110Z,13.50
2022-09-28T03:35:55.600Z,13.80
2022-09-28T03:38:25.033Z,13.90
2022-09-28T03:40:58.530Z,13.57
2022-09-28T03:43:28.788Z,13.37
2022-09-28T03:45:59.752Z,13.00
2022-09-28T03:48:33.429Z,12.40
2022-09-28T03:51:04.830Z,12.53
2022-09-28T03:53:35.712Z,11.67
2022-09-28T03:56:05.604Z,12.37
2022-09-28T03:58:35.184Z,11.40
2022-09-28T04:01:06.566Z,11.87
2022-09-28T04:03:38.584Z,12.10
2022-09-28T04:06:08.124Z,11.73
2022-09-28T04:08:37.516Z,12.30
2022-09-28T04:11:07.254Z,12.00
2022-09-28T04:13:37.118Z,11.57
2022-09-28T04:16:06.671Z,12.40
2022-09-28T04:18:38.746Z,10.53
2022-09-28T04:21:10.026Z,11.87
2022-09-28T04:23:41.698Z,13.20
2022-09-28T04:26:17.084Z,12.63
2022-09-28T04:29:01.641Z,11.97
2022-09-28T04:31:41.394Z,12.33
2022-09-28T04:34:14.709Z,12.50
2022-09-28T04:36:44.119Z,12.40
2022-09-28T04:39:14.315Z,12.53
2022-09-28T04:41:44.307Z,11.90
2022-09-28T04:44:13.661Z,13.33
2022-09-28T04:46:43.043Z,12.70
2022-09-28T04:49:15.475Z,10.97
2022-09-28T04:51:44.898Z,11.63
2022-09-28T04:54:14.434Z,11.10
2022-09-28T04:56:43.971Z,11.30
2022-09-28T04:59:13.474Z,11.80
2022-09-28T05:01:42.896Z,11.20
2022-09-28T05:04:14.867Z,12.47
2022-09-28T05:06:44.262Z,11.77
2022-09-28T05:09:13.703Z,12.47
2022-09-28T05:11:43.177Z,12.53
2022-09-28T05:14:13.888Z,11.10
2022-09-28T05:16:43.325Z,11.33
2022-09-28T05:19:15.842Z,13.00
2022-09-28T05:21:48.785Z,13.70
2022-09-28T05:24:18.181Z,12.57
2022-09-28T05:26:47.553Z,11.37
2022-09-28T05:29:17.077Z,11.97
2022-09-28T05:31:46.659Z,14.30
2022-09-28T05:34:18.653Z,11.10
2022-09-28T05:36:48.317Z,11.03
2022-09-28T05:39:17.806Z,10.37
2022-09-28T05:41:47.362Z,11.30
2022-09-28T05:44:16.890Z,11.83
2022-09-28T05:46:46.416Z,12.63
2022-09-28T05:49:18.362Z,10.70
2022-09-28T05:51:47.727Z,11.70
2022-09-28T05:54:17.304Z,11.47
2022-09-28T05:56:46.813Z,10.70
2022-09-28T05:59:16.699Z,10.83
2022-09-28T06:01:46.125Z,16.00
2022-09-28T06:04:18.944Z,15.07
2022-09-28T06:06:48.434Z,14.77
2022-09-28T06:09:17.811Z,16.67
2022-09-28T06:11:48.328Z,15.30
2022-09-28T06:14:17.821Z,15.60
2022-09-28T06:16:47.748Z,17.57
2022-09-28T06:19:19.823Z,17.43
2022-09-28T06:21:50.278Z,18.20
2022-09-28T06:24:19.709Z,17.40
2022-09-28T06:26:49.094Z,19.80
2022-09-28T06:29:19.813Z,19.27
2022-09-28T06:31:49.869Z,20.80
2022-09-28T06:34:21.846Z,22.43
2022-09-28T06:36:51.354Z,22.93
2022-09-28T06:39:21.123Z,20.33
2022-09-28T06:41:50.546Z,23.30
2022-09-28T06:44:19.950Z,22.67
2022-09-28T06:46:49.314Z,25.13
2022-09-28T06:49:21.287Z,24.37
2022-09-28T06:51:50.749Z,24.20
2022-09-28T06:54:20.177Z,23.40
2022-09-28T06:56:49.529Z,24.80
2022-09-28T06:59:18.906Z,29.60
2022-09-28T07:01:48.333Z,25.37
2022-09-28T07:04:17.846Z,26.53
2022-09-28T07:06:52.618Z,26.03
2022-09-28T07:09:32.490Z,23.67
2022-09-28T07:12:04.297Z,23.90
2022-09-28T07:14:47.280Z,25.60
2022-09-28T07:17:17.427Z,25.50
2022-09-28T07:19:48.018Z,25.60
2022-09-28T07:22:25.817Z,26.03
2022-09-28T07:25:00.659Z,27.03
2022-09-28T07:27:30.488Z,27.43
2022-09-28T07:29:59.881Z,33.70
2022-09-28T07:35:20.895Z,30.23
2022-09-28T07:38:00.396Z,26.30
2022-09-28T07:40:47.493Z,25.07
2022-09-28T07:43:20.587Z,23.60
2022-09-28T07:45:50.627Z,27.07
2022-09-28T07:48:20.616Z,26.50
2022-09-28T07:50:51.746Z,25.50
2022-09-28T07:53:25.056Z,24.90
2022-09-28T07:55:55.097Z,23.37
2022-09-28T07:58:25.066Z,24.57
2022-09-28T08:00:54.551Z,24.20
2022-09-28T08:03:24.739Z,23.33
2022-09-28T08:05:54.246Z,22.03
2022-09-28T08:08:26.934Z,23.67
2022-09-28T08:13:47.431Z,23.37
2022-09-28T08:16:16.899Z,24.60
2022-09-28T08:18:46.426Z,24.07
2022-09-28T08:21:28.301Z,23.40
2022-09-28T08:24:00.246Z,21.10
2022-09-28T08:26:29.643Z,20.93
2022-09-28T08:28:59.165Z,21.47
2022-09-28T08:31:28.549Z,19.13
2022-09-28T08:33:57.954Z,22.73
2022-09-28T08:36:28.289Z,20.03
2022-09-28T08:39:00.269Z,19.17
2022-09-28T08:41:36.812Z,18.00
2022-09-28T08:44:15.704Z,18.80
2022-09-28T08:46:47.752Z,19.93
2022-09-28T08:49:25.485Z,20.77
2022-09-28T08:51:59.983Z,20.00
2022-09-28T08:54:39.051Z,20.63
2022-09-28T08:57:12.059Z,20.43
2022-09-28T08:59:49.470Z,20.17
2022-09-28T09:02:22.774Z,18.10
2022-09-28T09:04:52.652Z,17.53
2022-09-28T09:07:34.974Z,18.63
2022-09-28T09:10:14.804Z,19.97
2022-09-28T09:12:50.117Z,18.77
2022-09-28T09:15:37.590Z,17.90
2022-09-28T09:18:20.044Z,18.73
2022-09-28T09:20:52.483Z,18.30
2022-09-28T09:23:23.058Z,18.10
2022-09-28T09:26:00.170Z,17.90
2022-09-28T09:29:04.574Z,18.90
2022-09-28T09:31:44.861Z,19.73
2022-09-28T09:34:27.833Z,23.70
2022-09-28T09:37:11.194Z,16.43
2022-09-28T09:39:51.332Z,15.23
2022-09-28T09:42:36.945Z,15.97
2022-09-28T09:45:16.107Z,14.97
2022-09-28T09:47:47.111Z,14.60
2022-09-28T09:50:25.255Z,14.70
2022-09-28T09:52:57.418Z,14.37
2022-09-28T09:55:30.318Z,15.40
2022-09-28T09:58:10.230Z,17.00
2022-09-28T10:00:42.346Z,16.87
2022-09-28T10:03:21.872Z,16.60
2022-09-28T10:05:54.396Z,15.77
2022-09-28T10:08:25.399Z,13.97
2022-09-28T10:10:57.238Z,13.23
2022-09-28T10:13:29.253Z,12.23
2022-09-28T10:15:58.701Z,11.13
2022-09-28T10:18:28.793Z,18.10
2022-09-28T10:20:58.170Z,24.23
2022-09-28T10:23:29.909Z,9.63
2022-09-28T10:26:03.206Z,9.40
2022-09-28T10:28:38.658Z,16.00
2022-09-28T10:31:42.189Z,8.60
2022-09-28T10:34:14.903Z,10.03
2022-09-28T10:36:50.437Z,9.27
2022-09-28T10:39:41.077Z,9.23
2022-09-28T10:42:12.640Z,9.00
2022-09-28T10:44:53.406Z,8.27
2022-09-28T10:47:25.124Z,8.10
2022-09-28T10:49:55.488Z,7.27
2022-09-28T10:52:36.590Z,7.67
2022-09-28T10:55:27.126Z,7.90
2022-09-28T10:57:56.538Z,7.70
2022-09-28T11:00:43.109Z,7.70
2022-09-28T11:03:20.898Z,7.80
2022-09-28T11:05:58.565Z,7.03
2022-09-28T11:08:30.452Z,6.80
2022-09-28T11:11:11.490Z,6.60
2022-09-28T11:13:46.250Z,5.97
2022-09-28T11:16:26.475Z,6.57
2022-09-28T11:18:56.026Z,6.60
2022-09-28T11:21:27.733Z,5.10
2022-09-28T11:24:05.960Z,7.80
2022-09-28T11:26:44.150Z,5.33
2022-09-28T11:29:22.862Z,5.47
2022-09-28T11:32:03.311Z,5.93
2022-09-28T11:34:58.158Z,16.23
2022-09-28T11:37:36.069Z,4.83
2022-09-28T11:40:16.174Z,4.90
2022-09-28T11:42:51.474Z,4.60
2022-09-28T11:45:30.050Z,1.20
2022-09-28T11:48:03.534Z,1.67
2022-09-28T11:50:38.592Z,1.63
2022-09-28T11:53:16.014Z,2.07
2022-09-28T11:55:49.595Z,1.83
2022-09-28T11:58:26.004Z,3.03
2022-09-28T12:00:59.672Z,3.20
2022-09-28T12:03:36.084Z,1.50
2022-09-28T12:06:09.307Z,3.00
2022-09-28T12:08:44.653Z,1.73
2022-09-28T12:11:18.534Z,2.60
2022-09-28T12:13:51.499Z,2.50
2022-09-28T12:16:45.729Z,2.13
2022-09-28T12:19:19.690Z,2.73
2022-09-28T12:21:51.726Z,2.57
2022-09-28T12:24:23.914Z,3.60
2022-09-28T12:26:57.486Z,2.03
2022-09-28T12:29:29.769Z,1.70
2022-09-28T12:32:03.796Z,1.50
2022-09-28T12:34:35.774Z,1.73
2022-09-28T12:37:27.017Z,5.00
2022-09-28T12:40:22.553Z,2.50
2022-09-28T12:43:06.983Z,2.37
2022-09-28T12:46:09.744Z,6.57
2022-09-28T12:48:52.975Z,21.50
2022-09-28T12:51:45.577Z,2.13
2022-09-28T12:54:27.682Z,2.67
2022-09-28T12:57:06.958Z,2.20
2022-09-28T12:59:39.109Z,2.07
2022-09-28T13:02:27.270Z,1.73
2022-09-28T13:05:27.998Z,2.10
2022-09-28T13:08:03.979Z,1.70
2022-09-28T13:10:37.034Z,1.90
2022-09-28T13:13:25.751Z,1.90
2022-09-28T13:15:58.508Z,1.50
2022-09-28T13:18:31.382Z,1.60
2022-09-28T13:21:11.381Z,1.67
2022-09-28T13:23:45.358Z,1.70
2022-09-28T13:26:20.114Z,1.60
2022-09-28T13:28:50.274Z,1.67
2022-09-28T13:31:25.802Z,2.57
2022-09-28T13:33:59.221Z,1.90
2022-09-28T13:36:48.045Z,1.67
2022-09-28T13:39:53.162Z,1.53
2022-09-28T13:42:41.687Z,6.00
2022-09-28T13:45:20.538Z,3.07
2022-09-28T13:48:17.609Z,2.83
2022-09-28T13:51:12.958Z,2.50
2022-09-28T13:54:00.023Z,3.27
2022-09-28T13:56:38.679Z,3.53
2022-09-28T13:59:17.159Z,2.50
2022-09-28T14:01:55.690Z,1.83
2022-09-28T14:04:26.410Z,1.90
2022-09-28T14:06:57.976Z,1.20
2022-09-28T14:09:30.174Z,1.73
2022-09-28T14:12:04.285Z,1.67
2022-09-28T14:14:49.493Z,1.60
2022-09-28T14:17:44.826Z,2.10
2022-09-28T14:20:18.146Z,1.50
2022-09-28T14:22:57.850Z,2.17
2022-09-28T14:25:29.660Z,2.00
2022-09-28T14:28:16.798Z,1.90
2022-09-28T14:30:52.081Z,1.80
2022-09-28T14:33:32.110Z,1.60
2022-09-28T14:36:04.679Z,2.07
2022-09-28T14:39:03.030Z,2.30
2022-09-28T14:41:34.860Z,2.10
2022-09-28T14:44:11.849Z,2.50
2022-09-28T14:46:44.785Z,1.67
2022-09-28T14:49:47.563Z,1.77
2022-09-28T14:52:21.568Z,2.20
2022-09-28T14:54:54.536Z,2.77
2022-09-28T14:57:28.939Z,3.30
2022-09-28T15:00:01.242Z,6.33
2022-09-28T15:02:34.159Z,11.20
2022-09-28T15:05:12.637Z,22.73
2022-09-28T15:07:47.642Z,4.00
2022-09-28T15:10:33.821Z,28.73
2022-09-28T15:13:05.327Z,15.07
2022-09-28T15:15:40.077Z,2.70
2022-09-28T15:18:19.370Z,10.67
2022-09-28T15:20:49.837Z,6.90
2022-09-28T15:23:30.829Z,5.03
2022-09-28T15:26:00.182Z,3.37
2022-09-28T15:28:29.741Z,3.10
2022-09-28T15:31:06.126Z,3.50
2022-09-28T15:33:49.034Z,5.77
2022-09-28T15:36:22.157Z,9.73
2022-09-28T15:38:57.065Z,2.13
2022-09-28T15:41:26.918Z,2.00
2022-09-28T15:44:25.335Z,2.13
2022-09-28T15:47:09.274Z,2.10
2022-09-28T15:49:42.777Z,1.87
2022-09-28T15:52:25.495Z,2.43
2022-09-28T15:54:55.071Z,1.60
2022-09-28T15:57:39.509Z,1.80
2022-09-28T16:00:24.850Z,1.70
2022-09-28T16:03:23.269Z,4.67
2022-09-28T16:05:54.781Z,1.93
2022-09-28T16:08:26.114Z,1.77
2022-09-28T16:10:59.906Z,1.67
2022-09-28T16:13:29.381Z,1.60
2022-09-28T16:16:00.552Z,1.47
2022-09-28T16:18:35.720Z,1.40
2022-09-28T16:21:37.625Z,1.70
2022-09-28T16:24:07.445Z,1.67
2022-09-28T16:26:38.901Z,2.37
2022-09-28T16:29:11.186Z,1.87
2022-09-28T16:31:43.847Z,1.80
2022-09-28T16:34:23.081Z,1.50
2022-09-28T16:36:53.235Z,1.90
2022-09-28T16:39:22.953Z,1.80
2022-09-28T16:41:55.650Z,2.10
2022-09-28T16:44:28.415Z,1.70
2022-09-28T16:47:00.231Z,2.10
2022-09-28T16:49:32.970Z,1.77
2022-09-28T16:52:02.419Z,1.90
2022-09-28T16:54:44.466Z,1.67
2022-09-28T16:57:15.241Z,2.33
2022-09-28T16:59:44.693Z,2.13
2022-09-28T17:02:45.799Z,2.07
2022-09-28T17:05:19.381Z,2.10
2022-09-28T17:07:49.725Z,1.80
2022-09-28T17:10:21.361Z,2.27
2022-09-28T17:12:50.725Z,2.90
2022-09-28T17:15:20.396Z,6.53
2022-09-28T17:17:50.516Z,3.00
2022-09-28T17:20:24.747Z,4.40
2022-09-28T17:22:54.211Z,3.60
2022-09-28T17:25:23.842Z,3.40
2022-09-28T17:27:54.562Z,3.20
2022-09-28T17:30:25.820Z,3.30
2022-09-28T17:32:55.406Z,4.10
2022-09-28T17:35:27.358Z,4.00
2022-09-28T17:37:56.836Z,5.90
2022-09-28T17:40:28.335Z,3.20
2022-09-28T17:42:59.739Z,3.70
2022-09-28T17:45:31.337Z,5.50
2022-09-28T17:48:01.155Z,4.80
2022-09-28T17:50:35.193Z,3.97
2022-09-28T17:53:06.447Z,4.50
2022-09-28T17:55:37.653Z,4.20
2022-09-28T17:58:17.277Z,4.10
2022-09-28T18:00:47.023Z,3.70
2022-09-28T18:03:18.271Z,4.20
2022-09-28T18:05:52.709Z,4.10
2022-09-28T18:08:23.973Z,4.20
2022-09-28T18:10:54.654Z,4.30
2022-09-28T18:13:24.017Z,4.80
2022-09-28T18:15:54.406Z,4.97
2022-09-28T18:18:23.963Z,4.73
2022-09-28T18:20:56.008Z,6.17
2022-09-28T18:23:25.519Z,5.33
2022-09-28T18:25:54.891Z,6.50
2022-09-28T18:28:24.335Z,10.77
2022-09-28T18:30:53.762Z,16.40
2022-09-28T18:33:23.250Z,32.40
2022-09-28T18:35:58.248Z,11.00
2022-09-28T18:38:27.615Z,8.73
2022-09-28T18:40:57.079Z,14.07
2022-09-28T18:43:26.678Z,13.67
2022-09-28T18:45:56.259Z,9.97
2022-09-28T18:48:28.013Z,8.27
2022-09-28T18:51:00.156Z,6.93
2022-09-28T18:53:29.522Z,8.40
2022-09-28T18:55:59.164Z,8.60
2022-09-28T18:58:28.539Z,9.23
2022-09-28T19:01:13.487Z,9.93
2022-09-28T19:03:47.345Z,9.87
2022-09-28T19:06:19.879Z,10.30
2022-09-28T19:08:55.623Z,11.17
2022-09-28T19:11:25.704Z,11.73
2022-09-28T19:13:56.109Z,10.90
2022-09-28T19:16:26.689Z,12.03
2022-09-28T19:18:56.236Z,11.97
2022-09-28T19:21:28.506Z,12.43
2022-09-28T19:23:57.874Z,12.10
2022-09-28T19:26:29.685Z,10.93
2022-09-28T19:29:00.772Z,11.43
2022-09-28T19:31:30.928Z,13.70
2022-09-28T19:34:00.394Z,13.27
2022-09-28T19:36:32.652Z,14.50
2022-09-28T19:39:04.319Z,12.50
2022-09-28T19:41:50.195Z,11.30
2022-09-28T19:44:24.750Z,12.20
2022-09-28T19:46:55.825Z,13.63
2022-09-28T19:49:26.365Z,9.60
2022-09-28T19:52:12.759Z,11.90
2022-09-28T19:54:43.933Z,14.70
2022-09-28T19:57:14.511Z,14.00
2022-09-28T19:59:44.025Z,12.83
2022-09-28T20:02:14.293Z,14.63
2022-09-28T20:04:43.701Z,15.47
2022-09-28T20:07:15.769Z,15.10
2022-09-28T20:09:45.180Z,15.40
2022-09-28T20:12:14.584Z,14.30
2022-09-28T20:14:43.973Z,15.20
2022-09-28T20:17:13.366Z,17.30
2022-09-28T20:19:42.750Z,15.93
2022-09-28T20:22:16.518Z,16.80
2022-09-28T20:24:48.893Z,16.27
2022-09-28T20:27:18.308Z,15.67
2022-09-28T20:29:48.205Z,16.60
2022-09-28T20:32:17.611Z,18.03
2022-09-28T20:34:47.010Z,16.33
2022-09-28T20:37:19.407Z,16.10
2022-09-28T20:39:48.901Z,17.83
2022-09-28T20:42:18.489Z,17.03
2022-09-28T20:44:48.010Z,17.60
2022-09-28T20:47:17.445Z,18.50
2022-09-28T20:49:47.591Z,17.00
2022-09-28T20:52:19.565Z,17.00
2022-09-28T20:54:48.991Z,17.80
2022-09-28T20:57:21.371Z,18.47
2022-09-28T20:59:54.483Z,17.10
2022-09-28T21:02:25.210Z,16.37
2022-09-28T21:04:54.638Z,16.10
2022-09-28T21:07:26.757Z,18.23
2022-09-28T21:09:56.322Z,17.40
2022-09-28T21:12:26.082Z,17.57
2022-09-28T21:14:56.033Z,19.60
2022-09-28T21:17:25.514Z,20.80
2022-09-28T21:19:54.902Z,19.50
2022-09-28T21:22:26.883Z,18.33
2022-09-28T21:24:56.263Z,18.37
2022-09-28T21:27:25.687Z,17.77
2022-09-28T21:29:55.241Z,18.90
2022-09-28T21:32:24.979Z,19.00
2022-09-28T21:34:55.738Z,16.93
2022-09-28T21:37:27.729Z,17.70
2022-09-28T21:39:57.106Z,18.00
2022-09-28T21:42:26.489Z,18.60
2022-09-28T21:44:59.347Z,18.27
2022-09-28T21:47:29.826Z,19.80
2022-09-28T21:49:59.204Z,22.50
2022-09-28T21:52:31.468Z,17.47
2022-09-28T21:55:00.868Z,17.00
2022-09-28T21:57:30.270Z,19.17
2022-09-28T21:59:59.808Z,18.67
2022-09-28T22:02:29.862Z,17.63
2022-09-28T22:04:59.515Z,17.27
2022-09-28T22:07:31.610Z,17.83
2022-09-28T22:10:01.016Z,18.33
2022-09-28T22:12:31.624Z,17.73
2022-09-28T22:15:01.099Z,18.13
2022-09-28T22:17:30.483Z,19.00
2022-09-28T22:19:59.904Z,16.30
2022-09-28T22:22:31.885Z,17.20
2022-09-28T22:25:01.297Z,16.57
2022-09-28T22:27:33.299Z,16.20
2022-09-28T22:30:02.678Z,18.37
2022-09-28T22:32:32.064Z,17.87
2022-09-28T22:35:01.465Z,16.67
2022-09-28T22:37:33.540Z,17.37
2022-09-28T22:40:03.959Z,16.47
2022-09-28T22:42:33.351Z,17.20
2022-09-28T22:45:02.725Z,16.93
2022-09-28T22:47:32.105Z,16.53
2022-09-28T22:50:01.506Z,18.97
2022-09-28T22:52:33.447Z,16.37
2022-09-28T22:55:02.831Z,20.10
2022-09-28T22:57:32.231Z,16.80
2022-09-28T23:00:01.790Z,16.27
2022-09-28T23:02:31.218Z,16.60
2022-09-28T23:05:00.622Z,16.13
2022-09-28T23:07:30.022Z,17.60
2022-09-28T23:10:02.003Z,28.70
2022-09-28T23:12:33.331Z,18.13
2022-09-28T23:15:02.708Z,16.80
2022-09-28T23:17:32.096Z,17.17
2022-09-28T23:20:01.463Z,17.67
2022-09-28T23:22:30.838Z,16.67
2022-09-28T23:25:02.787Z,17.00
2022-09-28T23:27:32.180Z,16.97
2022-09-28T23:30:01.546Z,17.40
2022-09-28T23:32:32.080Z,16.73
2022-09-28T23:35:01.658Z,15.53
2022-09-28T23:37:31.107Z,15.17
2022-09-28T23:40:03.681Z,15.87
2022-09-28T23:42:33.358Z,14.87
2022-09-28T23:45:02.769Z,14.60
2022-09-28T23:47:32.121Z,15.97
2022-09-28T23:50:01.853Z,15.10
2022-09-28T23:52:31.318Z,14.77
2022-09-28T23:55:03.306Z,14.60
2022-09-28T23:57:32.710Z,13.80
